Terminal Aerodrome Forecast
Issued by NWS

Home | Current Version | Previous Version | Text Only | Print | Product List | Glossary On
Versions: 1 2 3 4 5 6 7 8 9 10 11 12 13 14 15 16 17
000
FTUS43 KOAX 240500
TAFSNY
TAF
KSNY 240520Z 2406/2506 16012KT P6SM SCT150
     FM241600 23013G20KT P6SM SCT120
     FM242200 27012G19KT P6SM VCTS SCT100CB BKN150
     FM250100 28009KT P6SM SCT150=

USA.gov is the U.S. government's official web portal to all federal, state and local government web resources and services.